Time;durP1;ratioP1;P1;durP2;ratioP2;P2;SDS_P1;SDS_P2;PMS_P1;PMS_P2;Temp;Humidity;BMP_temperature;BMP_pressure;BME280_temperature;BME280_humidity;BME280_pressure;Samples;Min_cycle;Max_cycle;Signal;HPM_P1;HPM_P2
2022/09/09 00:01:01;;;;;;;2.43;0.97;;;;;;;17.46;100.00;99872.97;8313786;28;20438;-50
2022/09/09 00:05:28;;;;;;;7.30;1.73;;;;;;;17.28;100.00;99875.31;8314603;28;20276;-48
2022/09/09 00:09:33;;;;;;;3.78;0.90;;;;;;;17.16;100.00;99866.84;8310989;28;20049;-48
2022/09/09 00:13:48;;;;;;;1.17;0.70;;;;;;;17.20;100.00;99873.56;8292112;28;20422;-48
2022/09/09 00:17:57;;;;;;;6.75;1.15;;;;;;;17.28;100.00;99869.84;8292779;28;20577;-48
2022/09/09 00:26:42;;;;;;;4.10;0.45;;;;;;;17.39;100.00;99864.66;8284066;28;20842;-46
2022/09/09 00:30:42;;;;;;;1.83;0.45;;;;;;;17.43;100.00;99862.44;8281403;28;20037;-47
2022/09/09 00:34:52;;;;;;;2.80;0.47;;;;;;;17.41;100.00;99864.47;8283587;28;20499;-47
2022/09/09 00:38:56;;;;;;;2.42;0.50;;;;;;;17.47;100.00;99855.50;8281878;28;20038;-48
2022/09/09 00:43:26;;;;;;;1.77;0.30;;;;;;;17.46;100.00;99867.50;8284384;28;20069;-47
2022/09/09 00:52:22;;;;;;;3.75;0.38;;;;;;;17.46;100.00;99862.03;8317741;27;20389;-46
2022/09/09 00:56:36;;;;;;;1.67;0.65;;;;;;;17.39;99.80;99863.84;8312508;28;20120;-46
2022/09/09 01:00:48;;;;;;;;;;;;;;;17.38;99.62;99867.59;8317331;28;20061;-46
2022/09/09 01:04:49;;;;;;;3.05;0.47;;;;;;;17.37;99.14;99868.66;8316053;28;20339;-46
2022/09/09 01:09:17;;;;;;;1.65;0.43;;;;;;;17.28;99.35;99850.72;8316825;28;20052;-46
2022/09/09 01:13:30;;;;;;;2.22;0.28;;;;;;;17.24;100.00;99852.19;8316812;28;20100;-47
2022/09/09 01:17:52;;;;;;;2.00;0.43;;;;;;;17.16;100.00;99855.06;8310173;28;20048;-47
2022/09/09 01:22:03;;;;;;;1.05;0.40;;;;;;;16.99;100.00;99850.94;8315750;28;20145;-47
2022/09/09 01:26:28;;;;;;;3.97;0.60;;;;;;;16.93;100.00;99844.38;8315320;28;20091;-49
2022/09/09 01:30:29;;;;;;;1.50;0.50;;;;;;;16.99;100.00;99843.56;8314106;28;20069;-47
2022/09/09 01:34:35;;;;;;;4.03;0.80;;;;;;;16.97;100.00;99845.69;8315422;28;20041;-46
2022/09/09 01:38:37;;;;;;;2.78;0.40;;;;;;;16.90;100.00;99854.84;8315057;28;20030;-46
2022/09/09 01:42:37;;;;;;;1.95;0.93;;;;;;;16.88;100.00;99856.94;8316118;28;20038;-46
2022/09/09 01:46:38;;;;;;;5.40;0.98;;;;;;;16.92;100.00;99858.22;8315459;28;20034;-47
2022/09/09 01:50:38;;;;;;;3.47;0.60;;;;;;;16.94;100.00;99856.13;8314619;28;20091;-47
2022/09/09 01:54:39;;;;;;;6.90;0.88;;;;;;;17.03;100.00;99853.06;8314888;28;20045;-50
2022/09/09 01:59:17;;;;;;;2.33;0.60;;;;;;;17.08;100.00;99847.03;8313697;28;20030;-47
2022/09/09 02:07:41;;;;;;;5.00;0.70;;;;;;;17.25;100.00;99848.41;8290574;28;20933;-46
2022/09/09 02:11:45;;;;;;;3.92;0.65;;;;;;;17.32;100.00;99843.81;8284873;28;20034;-46
2022/09/09 02:20:12;;;;;;;4.13;0.77;;;;;;;17.39;100.00;99836.53;8391441;27;20435;-47
2022/09/09 02:24:15;;;;;;;1.90;0.80;;;;;;;17.31;100.00;99853.06;8381189;28;20139;-47
2022/09/09 02:28:18;;;;;;;4.65;0.70;;;;;;;17.27;100.00;99846.31;8375779;28;20481;-47
2022/09/09 02:32:23;;;;;;;5.35;1.10;;;;;;;17.28;100.00;99842.53;8382953;28;20033;-47
2022/09/09 02:36:25;;;;;;;;;;;;;;;17.34;100.00;99847.19;8382026;28;20045;-47
2022/09/09 02:40:26;;;;;;;3.63;0.70;;;;;;;17.36;100.00;99847.84;8382114;28;19921;-47
2022/09/09 02:44:26;;;;;;;3.30;0.80;;;;;;;17.39;100.00;99836.53;8363920;28;20052;-47
2022/09/09 02:48:43;;;;;;;7.82;1.35;;;;;;;17.46;100.00;99834.69;8382204;28;20051;-47
2022/09/09 02:53:23;;;;;;;7.30;1.55;;;;;;;17.53;100.00;99828.22;8380836;28;20089;-49
2022/09/09 02:57:27;;;;;;;3.22;0.80;;;;;;;17.44;100.00;99831.31;8379117;28;20040;-48
2022/09/09 03:01:51;;;;;;;4.78;1.05;;;;;;;17.46;100.00;99823.75;8388778;28;20037;-47
2022/09/09 03:05:51;;;;;;;7.13;1.43;;;;;;;17.40;100.00;99827.25;8380932;28;20044;-49
2022/09/09 03:09:54;;;;;;;11.88;1.30;;;;;;;17.43;100.00;99829.63;8380062;28;20502;-48
2022/09/09 03:13:55;;;;;;;3.40;0.80;;;;;;;17.37;100.00;99833.13;8380771;28;20507;-48
2022/09/09 03:17:57;;;;;;;3.78;1.00;;;;;;;17.45;100.00;99833.03;8380673;28;20037;-48
2022/09/09 03:21:58;;;;;;;2.58;1.00;;;;;;;17.58;100.00;99828.47;8380936;28;20055;-51
2022/09/09 03:25:58;;;;;;;5.65;1.05;;;;;;;17.81;100.00;99830.88;8379363;28;20053;-48
2022/09/09 03:29:59;;;;;;;6.60;0.93;;;;;;;17.88;100.00;99831.75;8366649;28;20033;-47
2022/09/09 03:33:59;;;;;;;5.22;1.25;;;;;;;17.93;100.00;99840.19;8357132;28;20033;-48
2022/09/09 03:38:00;;;;;;;6.25;1.30;;;;;;;17.94;100.00;99833.69;8355146;28;20160;-48
2022/09/09 03:42:03;;;;;;;5.57;1.08;;;;;;;17.98;100.00;99834.94;8358360;28;20555;-49
2022/09/09 03:46:04;;;;;;;6.40;0.98;;;;;;;17.99;100.00;99831.16;8357812;28;20087;-47
2022/09/09 03:50:08;;;;;;;6.88;1.40;;;;;;;18.01;100.00;99831.81;8358878;28;20061;-47
2022/09/09 03:54:10;;;;;;;5.40;1.25;;;;;;;18.02;99.13;99825.28;8355704;28;20067;-47
2022/09/09 03:58:10;;;;;;;7.35;1.20;;;;;;;18.07;98.52;99819.19;8354382;28;20040;-49
2022/09/09 04:02:11;;;;;;;6.10;0.98;;;;;;;18.13;97.80;99823.84;8354077;28;20045;-48
2022/09/09 04:06:14;;;;;;;6.95;1.05;;;;;;;18.14;97.48;99817.34;8348445;28;20032;-50
2022/09/09 04:10:15;;;;;;;6.10;1.00;;;;;;;18.17;97.18;99815.03;8351344;28;20141;-47
2022/09/09 04:14:16;;;;;;;5.03;1.27;;;;;;;18.16;97.14;99826.16;8350003;28;20041;-49
2022/09/09 04:18:16;;;;;;;6.15;1.13;;;;;;;18.12;97.36;99817.56;8336029;28;20041;-49
2022/09/09 04:22:16;;;;;;;4.97;1.17;;;;;;;18.06;98.65;99832.06;8354606;28;20048;-48
2022/09/09 04:26:17;;;;;;;7.70;1.63;;;;;;;18.02;98.42;99825.28;8344085;28;20366;-48
2022/09/09 04:30:18;;;;;;;6.05;1.35;;;;;;;18.08;98.29;99829.94;8355552;28;20048;-50
2022/09/09 04:34:18;;;;;;;4.80;1.42;;;;;;;18.10;97.83;99833.31;8351427;28;20132;-49
2022/09/09 04:38:19;;;;;;;5.55;0.90;;;;;;;18.14;97.40;99826.38;8349681;28;20041;-50
2022/09/09 04:42:20;;;;;;;4.53;0.82;;;;;;;18.18;96.43;99824.09;8350189;28;20132;-49
2022/09/09 04:46:22;;;;;;;4.30;1.10;;;;;;;18.20;96.64;99827.47;8350961;28;20506;-50
2022/09/09 04:50:23;;;;;;;3.55;1.20;;;;;;;18.16;96.61;99832.50;8351086;28;20103;-52
2022/09/09 04:54:23;;;;;;;4.32;1.08;;;;;;;18.14;96.92;99826.38;8337292;28;20044;-48
2022/09/09 04:58:23;;;;;;;4.22;0.98;;;;;;;18.17;96.53;99834.16;8352206;28;20041;-52
2022/09/09 05:02:24;;;;;;;3.40;1.27;;;;;;;18.19;95.33;99826.63;8335594;28;20053;-50
2022/09/09 05:06:24;;;;;;;8.90;1.30;;;;;;;18.23;95.28;99835.22;8350905;28;20048;-49
2022/09/09 05:10:26;;;;;;;10.82;1.58;;;;;;;18.23;94.94;99833.34;8353431;28;20048;-50
2022/09/09 05:14:27;;;;;;;3.28;0.80;;;;;;;18.22;94.94;99839.88;8347337;28;20045;-50
2022/09/09 05:18:27;;;;;;;7.38;1.40;;;;;;;18.21;95.13;99832.69;8313032;28;20660;-50
2022/09/09 05:22:27;;;;;;;7.68;1.42;;;;;;;18.22;94.40;99842.63;8315821;28;20045;-50
2022/09/09 05:26:29;;;;;;;8.20;1.48;;;;;;;18.24;94.18;99845.97;8310599;28;20683;-49
2022/09/09 05:30:29;;;;;;;9.15;1.63;;;;;;;18.22;93.77;99837.16;8314951;28;20142;-48
2022/09/09 05:34:30;;;;;;;6.03;0.85;;;;;;;18.25;92.26;99844.94;8318564;28;20033;-49
2022/09/09 05:38:32;;;;;;;5.95;0.88;;;;;;;18.35;91.12;99842.66;8318155;28;20083;-49
2022/09/09 05:42:33;;;;;;;3.72;0.73;;;;;;;18.43;90.02;99834.28;8310573;28;20108;-49
2022/09/09 05:46:33;;;;;;;2.72;0.80;;;;;;;18.51;89.69;99839.56;8319971;28;20029;-49
2022/09/09 05:50:34;;;;;;;3.88;0.98;;;;;;;18.48;89.16;99845.44;8315525;28;20072;-49
2022/09/09 05:54:34;;;;;;;5.38;1.10;;;;;;;18.47;89.96;99851.13;8319613;28;20049;-49
2022/09/09 05:58:35;;;;;;;5.45;0.95;;;;;;;18.47;89.19;99851.97;8320502;28;20124;-52
2022/09/09 06:02:37;;;;;;;3.53;0.80;;;;;;;18.47;89.17;99848.38;8321702;28;20091;-49
2022/09/09 06:06:39;;;;;;;8.95;0.90;;;;;;;18.43;89.58;99861.66;8319571;28;20040;-49
2022/09/09 06:10:39;;;;;;;3.15;0.80;;;;;;;18.40;89.86;99850.28;8320632;28;20048;-49
2022/09/09 06:14:40;;;;;;;5.30;0.90;;;;;;;18.40;90.44;99845.66;8318211;28;20038;-49
2022/09/09 06:18:41;;;;;;;3.43;0.83;;;;;;;18.55;89.76;99848.19;8318603;28;20041;-48
2022/09/09 06:22:42;;;;;;;7.32;1.17;;;;;;;18.80;87.86;99841.06;8320749;28;20650;-48
2022/09/09 06:26:43;;;;;;;4.25;0.52;;;;;;;18.94;86.96;99849.06;8320511;28;20033;-52
2022/09/09 06:30:44;;;;;;;6.38;0.88;;;;;;;19.29;85.65;99849.72;8320545;28;20060;-49
2022/09/09 06:34:45;;;;;;;8.40;0.85;;;;;;;19.74;83.46;99842.47;8319993;28;20514;-49
2022/09/09 06:38:46;;;;;;;4.47;0.77;;;;;;;20.11;81.67;99841.69;8318958;28;20406;-50
2022/09/09 06:42:46;;;;;;;6.78;1.13;;;;;;;20.18;80.40;99834.28;8319154;28;20029;-51
2022/09/09 06:46:47;;;;;;;5.63;0.70;;;;;;;20.39;78.72;99828.47;8319278;28;20376;-50
2022/09/09 06:50:49;;;;;;;2.78;0.75;;;;;;;20.31;78.26;99839.72;8319880;28;20321;-52
2022/09/09 06:54:50;;;;;;;7.95;1.10;;;;;;;20.38;79.08;99837.78;8318427;28;20051;-52
2022/09/09 06:58:51;;;;;;;4.43;0.75;;;;;;;20.58;78.62;99832.97;8315254;28;20354;-52
2022/09/09 07:02:52;;;;;;;5.70;0.90;;;;;;;20.81;78.06;99828.59;8316258;28;20041;-50
2022/09/09 07:06:52;;;;;;;6.32;0.82;;;;;;;21.03;75.03;99837.31;8324642;28;20033;-52
2022/09/09 07:10:53;;;;;;;5.87;0.70;;;;;;;21.07;74.82;99838.53;8322179;28;20046;-50
2022/09/09 07:14:55;;;;;;;4.45;1.10;;;;;;;21.33;74.23;99844.69;8323832;28;20276;-48
2022/09/09 07:18:57;;;;;;;6.60;0.88;;;;;;;21.53;70.76;99849.13;8325439;28;20076;-48
2022/09/09 07:22:59;;;;;;;4.95;1.00;;;;;;;21.55;72.18;99853.31;8324091;28;20097;-49
2022/09/09 07:26:59;;;;;;;3.28;0.93;;;;;;;21.60;71.42;99848.00;8325353;28;20060;-50
2022/09/09 07:31:02;;;;;;;6.50;0.88;;;;;;;22.08;69.20;99865.44;8324971;28;20120;-50
2022/09/09 07:35:02;;;;;;;8.38;1.05;;;;;;;21.59;69.43;99865.56;8322731;28;20033;-50
2022/09/09 07:39:07;;;;;;;5.80;0.80;;;;;;;21.37;70.52;99861.53;8323587;28;20045;-49
2022/09/09 07:43:08;;;;;;;5.13;1.02;;;;;;;21.42;71.21;99863.63;8324311;28;20051;-51
2022/09/09 07:47:08;;;;;;;5.15;0.93;;;;;;;21.00;70.05;99865.25;8319013;28;20120;-46
2022/09/09 07:51:18;;;;;;;5.18;1.05;;;;;;;20.80;69.64;99870.03;8323581;28;20087;-46
2022/09/09 07:55:19;;;;;;;4.57;0.65;;;;;;;20.70;70.98;99869.66;8318600;28;20029;-50
2022/09/09 07:59:19;;;;;;;3.53;1.00;;;;;;;20.74;70.66;99868.19;8318828;28;20118;-46
2022/09/09 08:03:21;;;;;;;4.82;0.70;;;;;;;20.75;71.38;99878.09;8320855;28;20049;-46
2022/09/09 08:07:23;;;;;;;6.93;1.25;;;;;;;20.78;71.51;99872.16;8324600;28;20052;-47
2022/09/09 08:11:25;;;;;;;8.32;1.30;;;;;;;20.92;70.23;99869.09;8323805;28;20124;-48
2022/09/09 08:15:26;;;;;;;11.52;1.52;;;;;;;21.27;68.78;99872.22;8323657;28;20041;-49
2022/09/09 08:19:29;;;;;;;8.93;1.63;;;;;;;21.98;66.21;99870.66;8328172;28;20516;-48
2022/09/09 08:23:29;;;;;;;6.43;1.02;;;;;;;22.67;64.06;99865.53;8336277;28;20695;-49
2022/09/09 08:27:31;;;;;;;8.00;1.23;;;;;;;22.28;64.70;99876.22;8322041;28;20034;-48
2022/09/09 08:31:35;;;;;;;5.32;1.17;;;;;;;21.78;65.52;99892.06;8323495;28;20499;-48
2022/09/09 08:35:36;;;;;;;4.75;0.70;;;;;;;21.74;64.60;99890.00;8320861;28;20535;-48
2022/09/09 08:39:36;;;;;;;12.20;1.85;;;;;;;21.94;64.44;99885.97;8322755;28;20416;-49
2022/09/09 08:43:36;;;;;;;6.47;1.07;;;;;;;22.12;63.82;99888.72;8321888;28;20140;-48
2022/09/09 08:48:08;;;;;;;5.50;0.63;;;;;;;22.18;64.29;99893.31;8321848;28;20794;-50
2022/09/09 08:52:37;;;;;;;6.53;0.88;;;;;;;22.35;63.92;99883.31;8320181;28;20083;-49
2022/09/09 08:56:38;;;;;;;4.90;0.93;;;;;;;22.47;63.96;99886.97;8317278;28;20045;-50
2022/09/09 09:01:18;;;;;;;4.25;1.40;;;;;;;22.57;64.05;99892.78;8316667;28;20042;-49
2022/09/09 09:05:29;;;;;;;5.25;0.80;;;;;;;22.27;64.42;99891.91;8321710;28;20038;-51
2022/09/09 09:10:02;;;;;;;5.32;0.75;;;;;;;21.72;66.10;99892.94;8322182;28;20046;-48
2022/09/09 09:14:23;;;;;;;6.78;1.40;;;;;;;21.30;68.31;99894.63;8316371;28;20513;-51
2022/09/09 09:18:23;;;;;;;5.20;0.75;;;;;;;21.10;69.22;99888.44;8316295;28;20557;-50
2022/09/09 09:22:47;;;;;;;3.63;0.70;;;;;;;21.28;69.49;99896.75;8317222;28;20513;-52
2022/09/09 09:26:48;;;;;;;4.63;0.57;;;;;;;21.50;69.27;99899.09;8314155;28;20038;-49
2022/09/09 09:31:01;;;;;;;2.30;0.47;;;;;;;21.82;69.00;99896.03;8317538;28;20062;-48
2022/09/09 09:35:11;;;;;;;8.10;1.00;;;;;;;21.67;69.21;99903.78;8316108;28;20029;-49
2022/09/09 09:39:23;;;;;;;4.63;0.50;;;;;;;21.64;69.47;99901.50;8321250;28;20045;-49
2022/09/09 09:43:28;;;;;;;4.00;0.70;;;;;;;23.66;65.10;99900.66;8317495;28;20063;-52
2022/09/09 09:47:29;;;;;;;2.25;0.60;;;;;;;25.54;59.32;99892.91;8319069;28;20503;-48
2022/09/09 09:51:32;;;;;;;1.60;0.57;;;;;;;27.35;54.58;99896.06;8320892;28;20774;-50
2022/09/09 09:55:34;;;;;;;4.35;0.43;;;;;;;24.47;59.06;99917.94;8315846;28;20048;-51
2022/09/09 09:59:36;;;;;;;3.45;0.63;;;;;;;23.44;62.19;99905.91;8318633;28;20083;-51
2022/09/09 10:03:39;;;;;;;4.70;0.50;;;;;;;22.90;63.53;99915.22;8317342;28;20033;-49
2022/09/09 10:07:39;;;;;;;1.85;0.50;;;;;;;22.21;65.76;99909.38;8317372;28;20037;-48
2022/09/09 10:11:50;;;;;;;6.85;0.73;;;;;;;22.09;66.73;99902.94;8317722;28;20065;-51
2022/09/09 10:16:01;;;;;;;2.20;0.47;;;;;;;22.21;66.64;99901.09;8316798;28;20025;-48
2022/09/09 10:20:32;;;;;;;3.80;0.52;;;;;;;23.53;63.31;99898.94;8316999;28;20038;-48
2022/09/09 10:24:59;;;;;;;1.90;0.50;;;;;;;23.55;63.88;99891.28;8316919;28;20099;-50
2022/09/09 10:29:29;;;;;;;1.15;0.40;;;;;;;23.53;62.96;99903.63;8311296;28;20037;-51
2022/09/09 10:38:14;;;;;;;4.13;0.45;;;;;;;23.82;61.19;99902.69;8356634;27;20399;-47
2022/09/09 10:42:16;;;;;;;4.20;0.80;;;;;;;23.67;62.25;99892.13;8333579;28;20046;-49
2022/09/09 10:46:56;;;;;;;9.35;1.35;;;;;;;23.51;61.77;99894.75;8328722;28;20084;-48
2022/09/09 10:51:25;;;;;;;2.58;0.50;;;;;;;24.06;60.64;99893.31;8338903;28;20445;-49
2022/09/09 10:55:38;;;;;;;2.40;0.82;;;;;;;23.60;60.98;99887.81;8330698;28;20710;-49
2022/09/09 10:59:44;;;;;;;5.37;1.43;;;;;;;23.07;63.30;99877.63;8336278;28;20049;-48
2022/09/09 11:03:52;;;;;;;3.75;0.70;;;;;;;22.55;64.94;99872.91;8313430;28;20495;-48
2022/09/09 11:08:01;;;;;;;3.58;0.50;;;;;;;22.45;65.28;99886.34;8341524;28;20558;-48
2022/09/09 11:12:02;;;;;;;1.02;0.40;;;;;;;22.47;63.26;99875.97;8366289;28;20143;-48
2022/09/09 11:16:19;;;;;;;2.88;0.60;;;;;;;22.36;63.94;99874.00;8379032;28;20044;-50
2022/09/09 11:20:19;;;;;;;2.60;0.70;;;;;;;22.41;65.33;99865.00;8367723;28;20458;-49
2022/09/09 11:24:35;;;;;;;3.28;0.55;;;;;;;22.63;65.55;99869.81;8362314;28;20036;-48
2022/09/09 11:29:14;;;;;;;3.30;0.60;;;;;;;22.82;62.59;99862.34;8316777;28;20040;-50
2022/09/09 11:33:33;;;;;;;3.50;0.60;;;;;;;23.26;62.32;99863.78;8339684;28;20040;-50
2022/09/09 11:46:36;;;;;;;3.72;0.88;;;;;;;22.41;63.44;99865.88;8394922;27;20445;-50
2022/09/09 11:50:37;;;;;;;4.78;0.52;;;;;;;22.23;64.05;99874.16;8365099;28;20036;-48
2022/09/09 11:54:47;;;;;;;3.25;1.00;;;;;;;22.41;63.47;99860.34;8372232;28;20281;-50
2022/09/09 11:59:06;;;;;;;4.90;0.63;;;;;;;22.93;63.33;99870.63;8376162;28;20140;-49
2022/09/09 12:03:36;;;;;;;2.80;0.65;;;;;;;22.83;63.62;99864.88;8372229;28;20045;-48
2022/09/09 12:07:45;;;;;;;4.63;0.65;;;;;;;22.52;65.63;99867.03;8375727;28;20049;-51
2022/09/09 12:11:45;;;;;;;7.25;0.93;;;;;;;22.25;66.22;99866.50;8376551;28;20041;-48
2022/09/09 12:15:49;;;;;;;2.43;0.40;;;;;;;21.98;66.17;99859.66;8378616;28;20124;-48
2022/09/09 12:20:06;;;;;;;4.37;0.70;;;;;;;21.83;66.83;99867.44;8374901;28;20370;-48
2022/09/09 12:24:16;;;;;;;8.65;0.70;;;;;;;21.70;67.08;99883.22;8337268;28;20048;-48
2022/09/09 12:28:21;;;;;;;3.28;0.65;;;;;;;21.55;69.77;99891.84;8344177;28;20041;-48
2022/09/09 12:32:26;;;;;;;3.33;0.40;;;;;;;21.89;71.77;99891.31;8314093;28;20497;-48
2022/09/09 12:36:32;;;;;;;2.17;0.50;;;;;;;22.95;67.53;99882.28;8336769;28;20034;-48
2022/09/09 12:40:35;;;;;;;1.65;0.35;;;;;;;22.72;67.46;99870.34;8340396;28;20076;-48
2022/09/09 12:44:35;;;;;;;3.38;0.30;;;;;;;22.74;67.08;99860.75;8338521;28;20050;-48
2022/09/09 12:48:41;;;;;;;5.55;0.60;;;;;;;22.69;66.49;99852.34;8343063;28;20124;-48
2022/09/09 12:52:42;;;;;;;2.33;0.50;;;;;;;22.77;66.82;99860.28;8343633;28;20595;-49
2022/09/09 12:56:47;;;;;;;3.05;0.40;;;;;;;22.65;65.88;99855.81;8320980;28;20649;-49
2022/09/09 13:00:52;;;;;;;2.72;0.50;;;;;;;22.55;66.75;99853.63;8318003;28;20037;-49
2022/09/09 13:04:53;;;;;;;2.97;0.52;;;;;;;22.43;66.92;99851.84;8319737;28;20493;-48
2022/09/09 13:08:56;;;;;;;2.03;0.50;;;;;;;22.90;67.01;99849.06;8318550;28;20064;-48
2022/09/09 13:12:58;;;;;;;3.53;0.82;;;;;;;23.14;64.55;99844.41;8318921;28;20037;-48
2022/09/09 13:17:01;;;;;;;3.10;0.50;;;;;;;22.79;65.59;99835.25;8316740;28;20137;-50
2022/09/09 13:21:02;;;;;;;3.70;0.83;;;;;;;22.93;68.08;99847.72;8312946;28;20119;-50
2022/09/09 13:29:28;;;;;;;6.20;0.70;;;;;;;23.21;67.47;99831.38;8273034;28;20410;-47
2022/09/09 13:33:34;;;;;;;2.00;0.38;;;;;;;23.15;66.34;99824.06;8288809;28;20033;-48
2022/09/09 13:37:37;;;;;;;4.85;0.52;;;;;;;23.02;65.83;99825.09;8300521;28;20045;-49
2022/09/09 13:41:48;;;;;;;1.67;0.30;;;;;;;22.72;67.49;99817.97;8297652;28;20089;-47
2022/09/09 13:45:58;;;;;;;3.33;0.50;;;;;;;22.36;68.06;99812.56;8287178;28;20154;-50
2022/09/09 13:50:17;;;;;;;4.72;0.82;;;;;;;22.01;77.03;99836.31;8303767;28;20412;-50
2022/09/09 13:54:19;;;;;;;6.15;1.58;;;;;;;19.98;93.57;99859.06;8297625;28;20434;-49
2022/09/09 13:58:21;;;;;;;4.28;1.25;;;;;;;19.25;100.00;99868.44;8309840;28;20042;-51
2022/09/09 14:02:22;;;;;;;8.15;1.98;;;;;;;18.82;100.00;99872.66;8309464;28;20041;-50
2022/09/09 14:06:24;;;;;;;3.63;1.23;;;;;;;18.66;100.00;99856.63;8302802;28;20038;-48
2022/09/09 14:10:24;;;;;;;5.68;0.82;;;;;;;18.60;100.00;99868.41;8305923;28;20033;-48
2022/09/09 14:14:25;;;;;;;3.88;0.90;;;;;;;18.37;100.00;99870.69;8294642;28;20061;-49
2022/09/09 14:18:26;;;;;;;4.25;0.70;;;;;;;18.23;100.00;99855.25;8298854;28;20034;-48
2022/09/09 14:22:28;;;;;;;4.35;0.65;;;;;;;18.24;100.00;99856.91;8306539;28;20095;-52
2022/09/09 14:26:29;;;;;;;3.33;0.80;;;;;;;18.43;100.00;99861.66;8304454;28;20041;-51
2022/09/09 14:30:30;;;;;;;4.05;0.70;;;;;;;18.65;100.00;99846.75;8303605;28;20479;-51
2022/09/09 14:34:32;;;;;;;2.85;0.73;;;;;;;18.94;100.00;99854.56;8303098;28;20450;-51
2022/09/09 14:38:38;;;;;;;6.75;0.63;;;;;;;19.48;100.00;99857.94;8293465;28;20411;-51
2022/09/09 14:42:38;;;;;;;2.28;0.50;;;;;;;19.75;100.00;99852.34;8276431;28;20072;-48
2022/09/09 14:46:39;;;;;;;3.03;0.73;;;;;;;19.91;100.00;99847.25;8276857;28;20053;-51
2022/09/09 14:50:40;;;;;;;5.63;0.82;;;;;;;20.09;95.45;99854.75;8277748;28;20068;-51
2022/09/09 14:54:40;;;;;;;2.60;0.60;;;;;;;20.23;91.60;99861.91;8280345;28;20158;-49
2022/09/09 14:58:41;;;;;;;3.57;0.80;;;;;;;20.31;91.39;99864.44;8287844;28;20049;-49
2022/09/09 15:02:41;;;;;;;2.08;0.75;;;;;;;20.34;91.31;99856.56;8285309;28;20285;-52
2022/09/09 15:06:44;;;;;;;3.70;0.63;;;;;;;20.26;93.95;99875.22;8279608;28;20046;-51
2022/09/09 15:10:44;;;;;;;4.55;0.73;;;;;;;19.71;98.85;99868.44;8282892;28;20049;-52
2022/09/09 15:14:45;;;;;;;4.15;0.88;;;;;;;19.76;100.00;99870.53;8278314;28;20492;-51
2022/09/09 15:18:51;;;;;;;3.60;0.63;;;;;;;19.92;100.00;99864.56;8277954;28;20380;-50
2022/09/09 15:22:52;;;;;;;2.70;0.63;;;;;;;19.89;100.00;99867.72;8293299;28;20030;-51
2022/09/09 15:26:53;;;;;;;1.73;0.70;;;;;;;19.85;99.09;99863.75;8286775;28;20062;-48
2022/09/09 15:30:56;;;;;;;2.78;0.45;;;;;;;19.83;98.07;99861.22;8293520;28;20034;-50
2022/09/09 15:34:57;;;;;;;3.60;0.65;;;;;;;19.55;96.98;99873.53;8289948;28;20041;-52
2022/09/09 15:38:58;;;;;;;2.17;0.65;;;;;;;19.07;100.00;99876.50;8286104;28;20546;-52
2022/09/09 15:42:59;;;;;;;1.73;0.55;;;;;;;18.84;100.00;99880.66;8288300;28;20034;-48
2022/09/09 15:46:59;;;;;;;1.75;0.30;;;;;;;18.85;100.00;99876.91;8290851;28;20129;-50
2022/09/09 15:51:03;;;;;;;0.63;0.40;;;;;;;18.85;100.00;99882.38;8288572;28;20033;-49
2022/09/09 15:55:04;;;;;;;1.67;0.50;;;;;;;18.80;100.00;99879.41;8285215;28;20048;-50
2022/09/09 15:59:04;;;;;;;1.10;0.40;;;;;;;18.78;100.00;99871.41;8285149;28;20038;-48
2022/09/09 16:03:05;;;;;;;3.17;0.82;;;;;;;18.88;100.00;99871.81;8274386;28;20053;-50
2022/09/09 16:07:06;;;;;;;2.83;1.13;;;;;;;18.96;100.00;99885.34;8268915;28;20467;-48
2022/09/09 16:11:09;;;;;;;5.28;0.60;;;;;;;19.09;100.00;99874.38;8273592;28;20038;-49
2022/09/09 16:15:10;;;;;;;2.65;0.90;;;;;;;19.11;100.00;99880.50;8287365;28;20109;-48
2022/09/09 16:19:12;;;;;;;4.15;0.60;;;;;;;19.15;100.00;99878.16;8289635;28;20037;-48
2022/09/09 16:23:13;;;;;;;2.90;0.50;;;;;;;19.20;100.00;99873.75;8281435;28;21560;-49
2022/09/09 16:27:13;;;;;;;3.78;0.65;;;;;;;19.28;100.00;99868.06;8288946;28;20050;-49
2022/09/09 16:31:18;;;;;;;1.98;0.70;;;;;;;19.36;100.00;99865.09;8288898;28;20048;-51
2022/09/09 16:35:19;;;;;;;3.10;0.60;;;;;;;19.45;100.00;99872.06;8281144;28;20037;-50
2022/09/09 16:39:20;;;;;;;1.98;0.70;;;;;;;19.52;100.00;99868.47;8285657;28;20288;-50
2022/09/09 16:43:21;;;;;;;3.75;0.60;;;;;;;19.64;99.02;99866.75;8286038;28;20038;-52
2022/09/09 16:47:21;;;;;;;1.50;0.55;;;;;;;19.70;98.20;99871.38;8274390;28;20046;-51
2022/09/09 16:51:25;;;;;;;2.05;0.65;;;;;;;19.89;95.89;99882.31;8284062;28;20049;-49
2022/09/09 16:55:26;;;;;;;4.47;0.80;;;;;;;19.78;97.31;99879.34;8257198;28;20093;-50
2022/09/09 16:59:26;;;;;;;1.70;0.60;;;;;;;19.59;98.88;99896.72;8240778;28;20038;-49
2022/09/09 17:03:27;;;;;;;2.10;0.75;;;;;;;19.48;100.00;99894.63;8239206;28;20038;-53
2022/09/09 17:07:27;;;;;;;5.00;0.60;;;;;;;19.41;100.00;99897.38;8238195;28;20039;-48
2022/09/09 17:11:29;;;;;;;2.90;0.63;;;;;;;19.32;98.10;99902.25;8256699;28;20041;-50
2022/09/09 17:15:30;;;;;;;2.58;0.65;;;;;;;19.23;98.74;99900.72;8251951;28;20038;-49
2022/09/09 17:19:31;;;;;;;1.10;0.40;;;;;;;19.17;99.72;99904.31;8252898;28;20042;-50
2022/09/09 17:23:32;;;;;;;1.83;0.55;;;;;;;18.95;99.08;99900.09;8246465;28;20116;-48
2022/09/09 17:27:33;;;;;;;1.63;0.63;;;;;;;18.84;100.00;99906.16;8266484;28;20046;-49
2022/09/09 17:31:33;;;;;;;1.13;0.52;;;;;;;18.78;100.00;99908.88;8255568;28;20035;-49
2022/09/09 17:35:34;;;;;;;1.95;0.60;;;;;;;18.67;100.00;99915.00;8250511;28;20168;-49
2022/09/09 17:39:35;;;;;;;2.67;0.63;;;;;;;18.63;100.00;99933.72;8244924;28;20677;-48
2022/09/09 17:43:37;;;;;;;3.15;1.02;;;;;;;18.61;100.00;99929.50;8247072;28;20418;-48
2022/09/09 17:47:38;;;;;;;3.78;0.60;;;;;;;18.61;100.00;99930.38;8252118;28;20793;-49
2022/09/09 17:51:41;;;;;;;3.20;0.60;;;;;;;18.61;100.00;99941.31;8274677;28;20455;-49
2022/09/09 17:55:41;;;;;;;4.28;0.80;;;;;;;18.48;100.00;99954.13;8282628;28;20073;-49
2022/09/09 17:59:41;;;;;;;6.28;1.13;;;;;;;18.29;100.00;99952.94;8283019;28;20030;-48
2022/09/09 18:03:44;;;;;;;2.90;1.02;;;;;;;18.01;100.00;99965.84;8278794;28;20057;-51
2022/09/09 18:07:44;;;;;;;2.05;0.90;;;;;;;17.75;100.00;99960.19;8288217;28;20053;-49
2022/09/09 18:11:48;;;;;;;5.40;0.95;;;;;;;17.60;100.00;99946.63;8287495;28;20037;-48
2022/09/09 18:15:49;;;;;;;5.10;1.40;;;;;;;17.57;100.00;99951.69;8291566;28;20038;-49
2022/09/09 18:19:49;;;;;;;7.15;1.48;;;;;;;17.63;100.00;99964.56;8293484;28;20417;-48
2022/09/09 18:23:51;;;;;;;1.70;0.90;;;;;;;17.73;100.00;99967.78;8289617;28;20487;-49
2022/09/09 18:27:52;;;;;;;3.83;1.33;;;;;;;17.80;100.00;99963.19;8290965;28;20475;-48
2022/09/09 18:31:54;;;;;;;12.60;1.88;;;;;;;17.63;100.00;99972.75;8293911;28;20093;-48
2022/09/09 18:35:55;;;;;;;4.35;0.95;;;;;;;17.69;100.00;99961.03;8291538;28;20048;-48
2022/09/09 18:39:55;;;;;;;3.83;1.02;;;;;;;17.69;100.00;99974.69;8279401;28;20033;-49
2022/09/09 18:43:58;;;;;;;3.97;0.90;;;;;;;17.64;100.00;99974.44;8260042;28;20522;-49
2022/09/09 18:47:58;;;;;;;5.55;1.20;;;;;;;17.63;100.00;99972.75;8257926;28;20690;-48
2022/09/09 18:51:59;;;;;;;3.70;1.15;;;;;;;17.58;100.00;99973.34;8259299;28;20100;-48
2022/09/09 18:56:01;;;;;;;3.15;0.98;;;;;;;17.57;100.00;99984.50;8259004;28;20038;-50
2022/09/09 19:00:03;;;;;;;2.42;0.77;;;;;;;17.55;100.00;99975.63;8250451;28;20512;-48
2022/09/09 19:04:06;;;;;;;4.35;1.00;;;;;;;17.65;100.00;99976.13;8249416;28;20044;-50
2022/09/09 19:08:06;;;;;;;4.38;1.33;;;;;;;17.67;100.00;99976.78;8259561;28;20455;-48
2022/09/09 19:12:07;;;;;;;3.43;1.07;;;;;;;17.73;100.00;99978.72;8258108;28;20030;-49
2022/09/09 19:16:11;;;;;;;4.47;0.65;;;;;;;17.71;100.00;99983.53;8244170;28;20261;-50
2022/09/09 19:20:12;;;;;;;3.55;0.70;;;;;;;17.71;100.00;99986.25;8262022;28;20443;-49
2022/09/09 19:24:17;;;;;;;3.92;0.95;;;;;;;17.67;100.00;99990.44;8250214;28;20145;-48
2022/09/09 19:28:17;;;;;;;1.70;0.77;;;;;;;17.66;100.00;99983.31;8255897;28;20046;-48
2022/09/09 19:32:17;;;;;;;1.75;0.85;;;;;;;17.68;100.00;99992.13;8255329;28;20057;-49
2022/09/09 19:36:18;;;;;;;4.37;0.83;;;;;;;17.69;100.00;99991.09;8239846;28;20086;-49
2022/09/09 19:40:20;;;;;;;3.08;0.68;;;;;;;17.71;100.00;99994.47;8258391;28;20389;-49